sensor_id;sensor_type;location;lat;lon;timestamp;pressure;altitude;pressure_sealevel;temperature;humidity
57791;BME280;43621;51.798;21.588;2023-02-19T00:03:05;99332.54;;;4.10;66.80
57791;BME280;43621;51.798;21.588;2023-02-19T00:07:07;99348.27;;;4.03;66.78
57791;BME280;43621;51.798;21.588;2023-02-19T00:11:14;99341.34;;;3.94;66.76
57791;BME280;43621;51.798;21.588;2023-02-19T00:15:17;99343.68;;;3.88;66.79
57791;BME280;43621;51.798;21.588;2023-02-19T00:19:19;99347.55;;;3.82;66.78
57791;BME280;43621;51.798;21.588;2023-02-19T00:23:21;99343.13;;;3.68;66.60
57791;BME280;43621;51.798;21.588;2023-02-19T00:27:23;99338.65;;;3.50;66.54
57791;BME280;43621;51.798;21.588;2023-02-19T00:31:30;99340.06;;;3.36;66.47
57791;BME280;43621;51.798;21.588;2023-02-19T00:35:36;99331.13;;;3.21;66.52
57791;BME280;43621;51.798;21.588;2023-02-19T00:39:38;99328.66;;;3.10;66.69
57791;BME280;43621;51.798;21.588;2023-02-19T00:43:40;99330.88;;;3.03;66.82
57791;BME280;43621;51.798;21.588;2023-02-19T00:47:41;99332.71;;;2.99;66.91
57791;BME280;43621;51.798;21.588;2023-02-19T00:51:44;99338.35;;;2.95;66.99
57791;BME280;43621;51.798;21.588;2023-02-19T00:55:46;99334.54;;;2.98;67.37
57791;BME280;43621;51.798;21.588;2023-02-19T00:59:48;99320.74;;;3.03;67.53
57791;BME280;43621;51.798;21.588;2023-02-19T01:03:50;99316.35;;;3.08;67.62
57791;BME280;43621;51.798;21.588;2023-02-19T01:07:52;99318.25;;;3.11;67.43
57791;BME280;43621;51.798;21.588;2023-02-19T01:11:54;99318.77;;;3.06;67.19
57791;BME280;43621;51.798;21.588;2023-02-19T01:20:09;99323.33;;;3.03;67.33
57791;BME280;43621;51.798;21.588;2023-02-19T01:24:11;99326.81;;;3.12;67.39
57791;BME280;43621;51.798;21.588;2023-02-19T01:28:12;99329.58;;;3.21;67.35
57791;BME280;43621;51.798;21.588;2023-02-19T01:32:14;99324.13;;;3.30;67.25
57791;BME280;43621;51.798;21.588;2023-02-19T01:36:16;99318.55;;;3.35;67.10
57791;BME280;43621;51.798;21.588;2023-02-19T01:40:18;99322.15;;;3.38;67.18
57791;BME280;43621;51.798;21.588;2023-02-19T01:48:34;99313.96;;;3.41;66.94
57791;BME280;43621;51.798;21.588;2023-02-19T01:52:38;99321.26;;;3.38;66.92
57791;BME280;43621;51.798;21.588;2023-02-19T01:56:41;99321.24;;;3.34;66.96
57791;BME280;43621;51.798;21.588;2023-02-19T02:00:44;99323.55;;;3.33;66.91
57791;BME280;43621;51.798;21.588;2023-02-19T02:04:47;99323.54;;;3.40;67.01
57791;BME280;43621;51.798;21.588;2023-02-19T02:08:55;99326.55;;;3.53;67.10
57791;BME280;43621;51.798;21.588;2023-02-19T02:13:16;99327.44;;;3.65;67.06
57791;BME280;43621;51.798;21.588;2023-02-19T02:17:28;99327.48;;;3.71;67.05
57791;BME280;43621;51.798;21.588;2023-02-19T02:22:18;99328.10;;;3.74;66.88
57791;BME280;43621;51.798;21.588;2023-02-19T02:30:40;99337.21;;;3.80;66.79
57791;BME280;43621;51.798;21.588;2023-02-19T02:34:56;99338.13;;;3.81;66.73
57791;BME280;43621;51.798;21.588;2023-02-19T02:39:01;99331.31;;;3.85;66.66
57791;BME280;43621;51.798;21.588;2023-02-19T02:43:08;99328.09;;;3.91;66.58
57791;BME280;43621;51.798;21.588;2023-02-19T02:47:09;99325.16;;;3.98;66.44
57791;BME280;43621;51.798;21.588;2023-02-19T02:51:52;99324.13;;;4.05;66.30
57791;BME280;43621;51.798;21.588;2023-02-19T02:56:25;99328.03;;;4.10;66.35
57791;BME280;43621;51.798;21.588;2023-02-19T03:00:28;99327.49;;;4.13;66.28
57791;BME280;43621;51.798;21.588;2023-02-19T03:09:33;99321.35;;;4.10;66.18
57791;BME280;43621;51.798;21.588;2023-02-19T03:13:41;99314.73;;;4.06;65.97
57791;BME280;43621;51.798;21.588;2023-02-19T03:18:04;99306.67;;;4.00;65.92
57791;BME280;43621;51.798;21.588;2023-02-19T03:22:33;99305.05;;;3.97;65.95
57791;BME280;43621;51.798;21.588;2023-02-19T03:26:36;99296.89;;;3.93;65.81
57791;BME280;43621;51.798;21.588;2023-02-19T03:30:43;99291.97;;;3.89;65.86
57791;BME280;43621;51.798;21.588;2023-02-19T03:34:53;99292.52;;;3.86;65.78
57791;BME280;43621;51.798;21.588;2023-02-19T03:43:17;99302.60;;;3.90;65.74
57791;BME280;43621;51.798;21.588;2023-02-19T03:47:25;99310.33;;;3.96;65.73
57791;BME280;43621;51.798;21.588;2023-02-19T03:51:38;99308.52;;;3.99;65.63
57791;BME280;43621;51.798;21.588;2023-02-19T03:56:03;99305.14;;;3.98;65.61
57791;BME280;43621;51.798;21.588;2023-02-19T04:00:11;99305.06;;;3.94;65.65
57791;BME280;43621;51.798;21.588;2023-02-19T04:08:18;99297.81;;;3.87;65.57
57791;BME280;43621;51.798;21.588;2023-02-19T04:12:22;99296.49;;;3.84;65.50
57791;BME280;43621;51.798;21.588;2023-02-19T04:16:27;99295.40;;;3.80;65.54
57791;BME280;43621;51.798;21.588;2023-02-19T04:20:34;99288.33;;;3.78;65.58
57791;BME280;43621;51.798;21.588;2023-02-19T04:24:44;99284.56;;;3.75;65.45
57791;BME280;43621;51.798;21.588;2023-02-19T04:28:48;99285.52;;;3.78;65.49
57791;BME280;43621;51.798;21.588;2023-02-19T04:32:50;99280.90;;;3.84;65.59
57791;BME280;43621;51.798;21.588;2023-02-19T04:36:52;99271.17;;;3.93;65.56
57791;BME280;43621;51.798;21.588;2023-02-19T04:40:54;99268.39;;;3.98;65.63
57791;BME280;43621;51.798;21.588;2023-02-19T04:44:55;99268.92;;;3.97;65.50
57791;BME280;43621;51.798;21.588;2023-02-19T04:48:57;99270.92;;;3.96;65.57
57791;BME280;43621;51.798;21.588;2023-02-19T04:52:59;99267.77;;;3.97;65.41
57791;BME280;43621;51.798;21.588;2023-02-19T04:57:01;99261.05;;;3.94;65.27
57791;BME280;43621;51.798;21.588;2023-02-19T05:01:04;99256.58;;;3.92;65.24
57791;BME280;43621;51.798;21.588;2023-02-19T05:05:06;99257.48;;;3.88;65.05
57791;BME280;43621;51.798;21.588;2023-02-19T05:09:08;99257.25;;;3.85;64.88
57791;BME280;43621;51.798;21.588;2023-02-19T05:13:10;99249.70;;;3.82;64.92
57791;BME280;43621;51.798;21.588;2023-02-19T05:17:12;99255.27;;;3.79;64.81
57791;BME280;43621;51.798;21.588;2023-02-19T05:21:14;99257.72;;;3.74;64.71
57791;BME280;43621;51.798;21.588;2023-02-19T05:25:16;99252.61;;;3.73;64.65
57791;BME280;43621;51.798;21.588;2023-02-19T05:29:18;99252.03;;;3.76;64.68
57791;BME280;43621;51.798;21.588;2023-02-19T05:33:22;99249.80;;;3.82;64.67
57791;BME280;43621;51.798;21.588;2023-02-19T05:37:24;99247.51;;;3.88;64.57
57791;BME280;43621;51.798;21.588;2023-02-19T05:41:28;99242.02;;;3.90;64.56
57791;BME280;43621;51.798;21.588;2023-02-19T05:45:30;99240.13;;;3.92;64.58
57791;BME280;43621;51.798;21.588;2023-02-19T05:49:33;99237.23;;;3.92;64.44
57791;BME280;43621;51.798;21.588;2023-02-19T05:53:35;99227.20;;;3.89;64.43
57791;BME280;43621;51.798;21.588;2023-02-19T05:57:40;99228.48;;;3.86;64.28
57791;BME280;43621;51.798;21.588;2023-02-19T06:01:42;99222.71;;;3.85;64.25
57791;BME280;43621;51.798;21.588;2023-02-19T06:05:44;99216.92;;;3.84;64.24
57791;BME280;43621;51.798;21.588;2023-02-19T06:09:49;99217.46;;;3.83;64.20
57791;BME280;43621;51.798;21.588;2023-02-19T06:13:51;99217.06;;;3.82;64.16
57791;BME280;43621;51.798;21.588;2023-02-19T06:17:53;99214.77;;;3.80;64.14
57791;BME280;43621;51.798;21.588;2023-02-19T06:21:55;99221.60;;;3.79;64.13
57791;BME280;43621;51.798;21.588;2023-02-19T06:30:12;99238.58;;;3.83;64.13
57791;BME280;43621;51.798;21.588;2023-02-19T06:34:14;99237.73;;;3.92;64.16
57791;BME280;43621;51.798;21.588;2023-02-19T06:38:16;99235.04;;;4.04;64.13
57791;BME280;43621;51.798;21.588;2023-02-19T06:42:18;99240.58;;;4.13;64.21
57791;BME280;43621;51.798;21.588;2023-02-19T06:46:20;99245.79;;;4.17;64.13
57791;BME280;43621;51.798;21.588;2023-02-19T06:50:22;99258.75;;;4.20;64.17
57791;BME280;43621;51.798;21.588;2023-02-19T06:54:24;99260.23;;;4.23;64.06
57791;BME280;43621;51.798;21.588;2023-02-19T06:58:27;99260.12;;;4.27;63.99
57791;BME280;43621;51.798;21.588;2023-02-19T07:02:28;99266.19;;;4.31;64.00
57791;BME280;43621;51.798;21.588;2023-02-19T07:06:32;99256.67;;;4.40;63.99
57791;BME280;43621;51.798;21.588;2023-02-19T07:10:34;99261.47;;;4.47;63.86
57791;BME280;43621;51.798;21.588;2023-02-19T07:14:36;99257.85;;;4.60;63.88
57791;BME280;43621;51.798;21.588;2023-02-19T07:18:39;99261.81;;;4.78;63.84
57791;BME280;43621;51.798;21.588;2023-02-19T07:22:41;99265.79;;;4.89;63.69
57791;BME280;43621;51.798;21.588;2023-02-19T07:26:43;99265.15;;;4.93;63.64
57791;BME280;43621;51.798;21.588;2023-02-19T07:30:45;99267.58;;;4.88;63.43
57791;BME280;43621;51.798;21.588;2023-02-19T07:34:47;99276.51;;;4.82;63.52
57791;BME280;43621;51.798;21.588;2023-02-19T07:38:55;99276.73;;;4.81;63.56
57791;BME280;43621;51.798;21.588;2023-02-19T07:42:58;99279.24;;;4.80;63.47
57791;BME280;43621;51.798;21.588;2023-02-19T07:47:00;99279.33;;;4.77;63.34
57791;BME280;43621;51.798;21.588;2023-02-19T07:51:03;99277.63;;;4.74;63.35
57791;BME280;43621;51.798;21.588;2023-02-19T07:55:05;99279.85;;;4.77;63.37
57791;BME280;43621;51.798;21.588;2023-02-19T07:59:07;99277.55;;;4.84;63.60
57791;BME280;43621;51.798;21.588;2023-02-19T08:03:09;99278.62;;;5.05;63.78
57791;BME280;43621;51.798;21.588;2023-02-19T08:07:11;99276.50;;;5.28;63.41
57791;BME280;43621;51.798;21.588;2023-02-19T08:11:13;99278.83;;;5.46;63.32
57791;BME280;43621;51.798;21.588;2023-02-19T08:15:34;99277.09;;;5.55;63.13
57791;BME280;43621;51.798;21.588;2023-02-19T08:19:35;99279.20;;;5.58;63.13
57791;BME280;43621;51.798;21.588;2023-02-19T08:23:38;99285.54;;;5.57;62.89
57791;BME280;43621;51.798;21.588;2023-02-19T08:27:40;99282.02;;;5.52;62.70
57791;BME280;43621;51.798;21.588;2023-02-19T08:31:42;99286.63;;;5.50;62.70
57791;BME280;43621;51.798;21.588;2023-02-19T08:35:44;99287.56;;;5.52;62.59
57791;BME280;43621;51.798;21.588;2023-02-19T08:39:46;99289.96;;;5.47;62.42
57791;BME280;43621;51.798;21.588;2023-02-19T08:43:48;99296.46;;;5.50;62.43
57791;BME280;43621;51.798;21.588;2023-02-19T08:47:50;99295.80;;;5.55;62.39
57791;BME280;43621;51.798;21.588;2023-02-19T08:51:52;99289.19;;;5.67;62.44
57791;BME280;43621;51.798;21.588;2023-02-19T08:55:54;99284.84;;;5.93;62.29
57791;BME280;43621;51.798;21.588;2023-02-19T08:59:56;99287.88;;;6.17;62.11
57791;BME280;43621;51.798;21.588;2023-02-19T09:03:58;99283.30;;;6.54;61.86
57791;BME280;43621;51.798;21.588;2023-02-19T09:08:00;99280.59;;;6.89;61.46
57791;BME280;43621;51.798;21.588;2023-02-19T09:12:07;99277.88;;;7.00;61.05
57791;BME280;43621;51.798;21.588;2023-02-19T09:16:10;99272.31;;;7.03;60.44
57791;BME280;43621;51.798;21.588;2023-02-19T09:20:12;99278.21;;;7.07;60.37
57791;BME280;43621;51.798;21.588;2023-02-19T09:24:14;99279.70;;;7.29;60.16
57791;BME280;43621;51.798;21.588;2023-02-19T09:28:16;99280.48;;;7.69;59.59
57791;BME280;43621;51.798;21.588;2023-02-19T09:32:18;99272.04;;;8.26;59.35
57791;BME280;43621;51.798;21.588;2023-02-19T09:36:20;99263.61;;;8.80;58.83
57791;BME280;43621;51.798;21.588;2023-02-19T09:40:22;99261.80;;;8.96;57.56
57791;BME280;43621;51.798;21.588;2023-02-19T09:44:32;99268.31;;;8.75;57.36
57791;BME280;43621;51.798;21.588;2023-02-19T09:48:34;99274.53;;;8.33;57.18
57791;BME280;43621;51.798;21.588;2023-02-19T09:52:43;99287.36;;;7.86;56.78
57791;BME280;43621;51.798;21.588;2023-02-19T09:56:48;99285.30;;;7.52;57.29
57791;BME280;43621;51.798;21.588;2023-02-19T10:00:51;99282.86;;;7.36;57.57
57791;BME280;43621;51.798;21.588;2023-02-19T10:04:53;99280.64;;;7.20;57.64
57791;BME280;43621;51.798;21.588;2023-02-19T10:09:20;99280.34;;;7.02;57.53
57791;BME280;43621;51.798;21.588;2023-02-19T10:13:28;99284.61;;;6.87;57.60
57791;BME280;43621;51.798;21.588;2023-02-19T10:17:32;99280.54;;;7.11;57.81
57791;BME280;43621;51.798;21.588;2023-02-19T10:21:36;99282.23;;;7.57;57.78
57791;BME280;43621;51.798;21.588;2023-02-19T10:25:44;99275.65;;;8.04;57.73
57791;BME280;43621;51.798;21.588;2023-02-19T10:29:48;99275.63;;;8.23;56.86
57791;BME280;43621;51.798;21.588;2023-02-19T10:33:53;99277.20;;;8.16;56.02
57791;BME280;43621;51.798;21.588;2023-02-19T10:37:55;99281.16;;;8.40;56.45
57791;BME280;43621;51.798;21.588;2023-02-19T10:41:58;99277.23;;;8.76;56.22
57791;BME280;43621;51.798;21.588;2023-02-19T10:46:23;99276.71;;;9.41;55.41
57791;BME280;43621;51.798;21.588;2023-02-19T10:50:30;99278.92;;;9.54;54.30
57791;BME280;43621;51.798;21.588;2023-02-19T10:54:33;99282.21;;;9.19;54.09
57791;BME280;43621;51.798;21.588;2023-02-19T10:58:36;99288.03;;;8.65;53.39
57791;BME280;43621;51.798;21.588;2023-02-19T11:02:42;99295.58;;;8.05;53.72
57791;BME280;43621;51.798;21.588;2023-02-19T11:06:45;99302.55;;;7.57;54.12
57791;BME280;43621;51.798;21.588;2023-02-19T11:10:48;99301.61;;;7.28;54.44
57791;BME280;43621;51.798;21.588;2023-02-19T11:14:50;99303.80;;;7.29;54.83
57791;BME280;43621;51.798;21.588;2023-02-19T11:18:55;99307.15;;;7.48;54.99
57791;BME280;43621;51.798;21.588;2023-02-19T11:23:02;99303.63;;;7.51;54.39
57791;BME280;43621;51.798;21.588;2023-02-19T11:27:12;99299.84;;;7.35;54.66
57791;BME280;43621;51.798;21.588;2023-02-19T11:31:29;99304.87;;;7.25;54.89
57791;BME280;43621;51.798;21.588;2023-02-19T11:35:35;99308.35;;;7.09;54.85
57791;BME280;43621;51.798;21.588;2023-02-19T11:39:39;99306.52;;;6.98;55.06
57791;BME280;43621;51.798;21.588;2023-02-19T11:43:56;99300.42;;;7.28;53.95
57791;BME280;43621;51.798;21.588;2023-02-19T11:52:35;99312.45;;;7.57;53.10
57791;BME280;43621;51.798;21.588;2023-02-19T11:56:41;99314.88;;;7.84;53.32
57791;BME280;43621;51.798;21.588;2023-02-19T12:09:35;99306.48;;;9.18;52.53
57791;BME280;43621;51.798;21.588;2023-02-19T12:14:04;99307.12;;;9.22;52.13
57791;BME280;43621;51.798;21.588;2023-02-19T12:18:41;99314.38;;;9.12;51.75
57791;BME280;43621;51.798;21.588;2023-02-19T12:31:54;99320.08;;;9.45;50.96
57791;BME280;43621;51.798;21.588;2023-02-19T12:44:49;99333.47;;;10.04;49.88
57791;BME280;43621;51.798;21.588;2023-02-19T12:57:26;99344.30;;;9.36;47.87
57791;BME280;43621;51.798;21.588;2023-02-19T13:01:34;99356.23;;;9.02;48.36
57791;BME280;43621;51.798;21.588;2023-02-19T13:05:48;99361.16;;;8.83;48.36
57791;BME280;43621;51.798;21.588;2023-02-19T13:09:58;99366.55;;;8.80;48.86
57791;BME280;43621;51.798;21.588;2023-02-19T13:18:54;99373.73;;;9.16;48.53
57791;BME280;43621;51.798;21.588;2023-02-19T13:31:52;99386.13;;;8.03;48.60
57791;BME280;43621;51.798;21.588;2023-02-19T13:40:35;99389.14;;;8.04;49.01
57791;BME280;43621;51.798;21.588;2023-02-19T13:44:39;99387.92;;;8.22;49.06
57791;BME280;43621;51.798;21.588;2023-02-19T13:48:42;99391.70;;;8.24;49.17
57791;BME280;43621;51.798;21.588;2023-02-19T13:52:45;99400.84;;;8.27;49.11
57791;BME280;43621;51.798;21.588;2023-02-19T13:56:47;99402.27;;;8.24;48.76
57791;BME280;43621;51.798;21.588;2023-02-19T14:00:50;99409.69;;;8.21;49.18
57791;BME280;43621;51.798;21.588;2023-02-19T14:04:53;99409.39;;;8.17;48.81
57791;BME280;43621;51.798;21.588;2023-02-19T14:08:57;99411.51;;;7.99;48.71
57791;BME280;43621;51.798;21.588;2023-02-19T14:13:00;99419.73;;;7.69;48.59
57791;BME280;43621;51.798;21.588;2023-02-19T14:21:34;99432.48;;;6.96;48.98
57791;BME280;43621;51.798;21.588;2023-02-19T14:29:43;99442.52;;;6.58;49.52
57791;BME280;43621;51.798;21.588;2023-02-19T14:33:51;99449.87;;;6.42;49.62
57791;BME280;43621;51.798;21.588;2023-02-19T14:37:55;99458.02;;;6.26;49.92
57791;BME280;43621;51.798;21.588;2023-02-19T14:42:00;99463.27;;;6.10;50.07
57791;BME280;43621;51.798;21.588;2023-02-19T14:46:12;99467.04;;;5.93;50.28
57791;BME280;43621;51.798;21.588;2023-02-19T14:50:26;99468.79;;;5.76;50.56
57791;BME280;43621;51.798;21.588;2023-02-19T14:59:15;99483.77;;;5.53;50.94
57791;BME280;43621;51.798;21.588;2023-02-19T15:07:30;99487.84;;;5.36;51.50
57791;BME280;43621;51.798;21.588;2023-02-19T15:11:34;99489.23;;;5.29;51.74
57791;BME280;43621;51.798;21.588;2023-02-19T15:15:38;99492.26;;;5.28;51.95
57791;BME280;43621;51.798;21.588;2023-02-19T15:19:44;99501.45;;;5.26;52.03
57791;BME280;43621;51.798;21.588;2023-02-19T15:23:46;99507.72;;;5.21;52.18
57791;BME280;43621;51.798;21.588;2023-02-19T15:27:48;99508.20;;;5.16;52.35
57791;BME280;43621;51.798;21.588;2023-02-19T15:31:52;99510.41;;;5.14;52.46
57791;BME280;43621;51.798;21.588;2023-02-19T15:35:58;99514.40;;;5.12;52.62
57791;BME280;43621;51.798;21.588;2023-02-19T15:40:04;99513.31;;;5.08;52.78
57791;BME280;43621;51.798;21.588;2023-02-19T15:57:17;99536.63;;;4.84;53.28
57791;BME280;43621;51.798;21.588;2023-02-19T16:01:25;99542.15;;;4.77;53.50
57791;BME280;43621;51.798;21.588;2023-02-19T16:05:28;99546.15;;;4.74;53.75
57791;BME280;43621;51.798;21.588;2023-02-19T16:09:37;99551.24;;;4.73;53.87
57791;BME280;43621;51.798;21.588;2023-02-19T16:13:40;99562.13;;;4.71;53.86
57791;BME280;43621;51.798;21.588;2023-02-19T16:17:43;99572.75;;;4.65;53.88
57791;BME280;43621;51.798;21.588;2023-02-19T16:21:45;99588.46;;;4.59;54.00
57791;BME280;43621;51.798;21.588;2023-02-19T16:25:47;99592.02;;;4.50;54.05
57791;BME280;43621;51.798;21.588;2023-02-19T16:29:50;99598.30;;;4.47;54.20
57791;BME280;43621;51.798;21.588;2023-02-19T16:33:52;99606.41;;;4.49;54.35
57791;BME280;43621;51.798;21.588;2023-02-19T16:37:58;99613.47;;;4.48;54.21
57791;BME280;43621;51.798;21.588;2023-02-19T16:46:08;99632.62;;;4.41;54.30
57791;BME280;43621;51.798;21.588;2023-02-19T16:50:14;99641.20;;;4.39;54.42
57791;BME280;43621;51.798;21.588;2023-02-19T16:54:16;99641.95;;;4.39;54.45
57791;BME280;43621;51.798;21.588;2023-02-19T16:58:18;99643.70;;;4.41;54.42
57791;BME280;43621;51.798;21.588;2023-02-19T17:02:22;99655.46;;;4.38;54.39
57791;BME280;43621;51.798;21.588;2023-02-19T17:06:25;99658.31;;;4.34;54.37
57791;BME280;43621;51.798;21.588;2023-02-19T17:10:27;99661.04;;;4.33;54.35
57791;BME280;43621;51.798;21.588;2023-02-19T17:14:29;99664.44;;;4.26;54.32
57791;BME280;43621;51.798;21.588;2023-02-19T17:18:31;99667.70;;;4.17;54.44
57791;BME280;43621;51.798;21.588;2023-02-19T17:22:33;99675.27;;;4.05;54.40
57791;BME280;43621;51.798;21.588;2023-02-19T17:26:35;99678.17;;;3.92;54.38
57791;BME280;43621;51.798;21.588;2023-02-19T17:30:37;99683.52;;;3.77;54.38
57791;BME280;43621;51.798;21.588;2023-02-19T17:34:39;99687.87;;;3.67;54.55
57791;BME280;43621;51.798;21.588;2023-02-19T17:38:41;99691.98;;;3.57;54.75
57791;BME280;43621;51.798;21.588;2023-02-19T17:42:43;99701.80;;;3.49;54.92
57791;BME280;43621;51.798;21.588;2023-02-19T17:46:46;99708.33;;;3.39;54.91
57791;BME280;43621;51.798;21.588;2023-02-19T17:50:48;99709.12;;;3.30;55.03
57791;BME280;43621;51.798;21.588;2023-02-19T17:54:52;99713.73;;;3.28;55.41
57791;BME280;43621;51.798;21.588;2023-02-19T17:58:55;99724.22;;;3.37;55.69
57791;BME280;43621;51.798;21.588;2023-02-19T18:02:57;99724.70;;;3.47;55.85
57791;BME280;43621;51.798;21.588;2023-02-19T18:06:59;99727.52;;;3.55;55.79
57791;BME280;43621;51.798;21.588;2023-02-19T18:11:03;99738.75;;;3.57;55.90
57791;BME280;43621;51.798;21.588;2023-02-19T18:15:06;99743.81;;;3.56;55.96
57791;BME280;43621;51.798;21.588;2023-02-19T18:19:08;99748.92;;;3.52;55.96
57791;BME280;43621;51.798;21.588;2023-02-19T18:23:10;99756.38;;;3.51;56.09
57791;BME280;43621;51.798;21.588;2023-02-19T18:27:13;99762.88;;;3.49;56.18
57791;BME280;43621;51.798;21.588;2023-02-19T18:31:15;99777.64;;;3.48;56.22
57791;BME280;43621;51.798;21.588;2023-02-19T18:35:18;99780.80;;;3.44;56.26
57791;BME280;43621;51.798;21.588;2023-02-19T18:39:20;99784.44;;;3.39;56.21
57791;BME280;43621;51.798;21.588;2023-02-19T18:43:22;99791.60;;;3.30;56.17
57791;BME280;43621;51.798;21.588;2023-02-19T18:47:24;99791.02;;;3.15;56.19
57791;BME280;43621;51.798;21.588;2023-02-19T18:51:26;99796.45;;;3.06;56.32
57791;BME280;43621;51.798;21.588;2023-02-19T18:55:28;99799.04;;;2.97;56.41
57791;BME280;43621;51.798;21.588;2023-02-19T18:59:31;99796.05;;;2.90;56.51
57791;BME280;43621;51.798;21.588;2023-02-19T19:03:32;99795.89;;;2.87;56.61
57791;BME280;43621;51.798;21.588;2023-02-19T19:07:34;99790.69;;;2.82;56.50
57791;BME280;43621;51.798;21.588;2023-02-19T19:11:36;99796.14;;;2.75;56.62
57791;BME280;43621;51.798;21.588;2023-02-19T19:15:39;99796.95;;;2.67;56.56
57791;BME280;43621;51.798;21.588;2023-02-19T19:19:42;99805.22;;;2.62;56.70
57791;BME280;43621;51.798;21.588;2023-02-19T19:23:45;99808.77;;;2.57;56.74
57791;BME280;43621;51.798;21.588;2023-02-19T19:27:47;99809.67;;;2.51;56.69
57791;BME280;43621;51.798;21.588;2023-02-19T19:31:52;99817.69;;;2.44;56.69
57791;BME280;43621;51.798;21.588;2023-02-19T19:35:54;99824.68;;;2.39;56.69
57791;BME280;43621;51.798;21.588;2023-02-19T19:39:56;99827.52;;;2.35;56.80
57791;BME280;43621;51.798;21.588;2023-02-19T19:44:01;99829.42;;;2.32;56.78
57791;BME280;43621;51.798;21.588;2023-02-19T19:48:04;99835.78;;;2.26;56.73
57791;BME280;43621;51.798;21.588;2023-02-19T19:52:07;99839.06;;;2.20;56.71
57791;BME280;43621;51.798;21.588;2023-02-19T19:56:09;99845.52;;;2.16;56.73
57791;BME280;43621;51.798;21.588;2023-02-19T20:00:13;99853.23;;;2.13;56.80
57791;BME280;43621;51.798;21.588;2023-02-19T20:04:18;99863.70;;;2.08;56.76
57791;BME280;43621;51.798;21.588;2023-02-19T20:08:20;99862.30;;;2.03;56.76
57791;BME280;43621;51.798;21.588;2023-02-19T20:12:22;99860.14;;;1.96;56.73
57791;BME280;43621;51.798;21.588;2023-02-19T20:16:26;99864.91;;;1.90;56.84
57791;BME280;43621;51.798;21.588;2023-02-19T20:20:28;99862.40;;;1.89;56.95
57791;BME280;43621;51.798;21.588;2023-02-19T20:24:31;99871.84;;;1.87;56.83
57791;BME280;43621;51.798;21.588;2023-02-19T20:28:33;99873.83;;;1.82;56.90
57791;BME280;43621;51.798;21.588;2023-02-19T20:32:35;99876.50;;;1.78;56.85
57791;BME280;43621;51.798;21.588;2023-02-19T20:36:47;99883.71;;;1.72;56.78
57791;BME280;43621;51.798;21.588;2023-02-19T20:40:49;99883.95;;;1.68;56.83
57791;BME280;43621;51.798;21.588;2023-02-19T20:44:51;99885.70;;;1.64;56.82
57791;BME280;43621;51.798;21.588;2023-02-19T20:48:52;99885.66;;;1.62;56.79
57791;BME280;43621;51.798;21.588;2023-02-19T20:52:54;99891.28;;;1.60;56.80
57791;BME280;43621;51.798;21.588;2023-02-19T20:56:59;99900.91;;;1.57;56.79
57791;BME280;43621;51.798;21.588;2023-02-19T21:01:01;99912.10;;;1.53;56.74
57791;BME280;43621;51.798;21.588;2023-02-19T21:05:03;99923.05;;;1.48;56.76
57791;BME280;43621;51.798;21.588;2023-02-19T21:09:05;99921.83;;;1.46;56.80
57791;BME280;43621;51.798;21.588;2023-02-19T21:13:07;99925.95;;;1.42;56.83
57791;BME280;43621;51.798;21.588;2023-02-19T21:17:09;99933.07;;;1.38;56.72
57791;BME280;43621;51.798;21.588;2023-02-19T21:21:11;99935.39;;;1.34;56.78
57791;BME280;43621;51.798;21.588;2023-02-19T21:25:13;99936.90;;;1.27;56.78
57791;BME280;43621;51.798;21.588;2023-02-19T21:29:18;99941.50;;;1.25;56.73
57791;BME280;43621;51.798;21.588;2023-02-19T21:33:20;99938.80;;;1.21;56.72
57791;BME280;43621;51.798;21.588;2023-02-19T21:37:22;99941.02;;;1.18;56.74
57791;BME280;43621;51.798;21.588;2023-02-19T21:41:25;99944.91;;;1.16;56.79
57791;BME280;43621;51.798;21.588;2023-02-19T21:45:27;99949.70;;;1.13;56.84
57791;BME280;43621;51.798;21.588;2023-02-19T21:49:29;99947.34;;;1.12;56.90
57791;BME280;43621;51.798;21.588;2023-02-19T21:53:31;99958.86;;;1.09;56.85
57791;BME280;43621;51.798;21.588;2023-02-19T21:57:33;99961.75;;;1.07;56.87
57791;BME280;43621;51.798;21.588;2023-02-19T22:01:36;99966.45;;;1.02;56.91
57791;BME280;43621;51.798;21.588;2023-02-19T22:05:42;99963.23;;;1.01;57.02
57791;BME280;43621;51.798;21.588;2023-02-19T22:09:44;99960.95;;;0.99;57.03
57791;BME280;43621;51.798;21.588;2023-02-19T22:13:46;99974.59;;;0.98;57.01
57791;BME280;43621;51.798;21.588;2023-02-19T22:17:48;99979.58;;;0.94;57.04
57791;BME280;43621;51.798;21.588;2023-02-19T22:21:50;99980.77;;;0.91;57.09
57791;BME280;43621;51.798;21.588;2023-02-19T22:25:51;99980.60;;;0.88;57.18
57791;BME280;43621;51.798;21.588;2023-02-19T22:29:53;99989.36;;;0.87;57.26
57791;BME280;43621;51.798;21.588;2023-02-19T22:33:55;99998.10;;;0.85;57.23
57791;BME280;43621;51.798;21.588;2023-02-19T22:37:58;99999.98;;;0.82;57.24
57791;BME280;43621;51.798;21.588;2023-02-19T22:42:00;100002.89;;;0.78;57.30
57791;BME280;43621;51.798;21.588;2023-02-19T22:46:02;100007.77;;;0.77;57.42
57791;BME280;43621;51.798;21.588;2023-02-19T22:50:07;100011.88;;;0.74;57.47
57791;BME280;43621;51.798;21.588;2023-02-19T22:54:09;100014.22;;;0.72;57.46
57791;BME280;43621;51.798;21.588;2023-02-19T22:58:11;100014.39;;;0.72;57.60
57791;BME280;43621;51.798;21.588;2023-02-19T23:02:13;100023.70;;;0.71;57.67
57791;BME280;43621;51.798;21.588;2023-02-19T23:06:16;100027.39;;;0.70;57.74
57791;BME280;43621;51.798;21.588;2023-02-19T23:10:18;100026.20;;;0.70;57.98
57791;BME280;43621;51.798;21.588;2023-02-19T23:14:20;100031.52;;;0.70;57.98
57791;BME280;43621;51.798;21.588;2023-02-19T23:18:22;100027.88;;;0.70;58.05
57791;BME280;43621;51.798;21.588;2023-02-19T23:22:24;100012.70;;;0.71;58.19
57791;BME280;43621;51.798;21.588;2023-02-19T23:26:26;100007.13;;;0.70;58.21
57791;BME280;43621;51.798;21.588;2023-02-19T23:30:28;99997.23;;;0.71;58.40
57791;BME280;43621;51.798;21.588;2023-02-19T23:34:30;99995.69;;;0.75;58.46
57791;BME280;43621;51.798;21.588;2023-02-19T23:38:32;99992.48;;;0.77;58.49